Time;durP1;ratioP1;P1;durP2;ratioP2;P2;SDS_P1;SDS_P2;PMS_P1;PMS_P2;Temp;Humidity;BMP_temperature;BMP_pressure;BME280_temperature;BME280_humidity;BME280_pressure;Samples;Min_cycle;Max_cycle;Signal;HPM_P1;HPM_P2
2023/04/29 00:00:26;;;;;;;65.07;47.30;;;;;;;8.92;100.00;101248.75;4924147;28;20032;-74
2023/04/29 00:02:51;;;;;;;65.32;47.75;;;;;;;8.84;100.00;101233.09;4904267;28;20071;-73
2023/04/29 00:05:17;;;;;;;66.88;47.00;;;;;;;8.86;100.00;101248.94;4909614;28;20435;-72
2023/04/29 00:07:42;;;;;;;62.50;45.03;;;;;;;8.86;100.00;101244.53;4928710;28;20024;-73
2023/04/29 00:10:08;;;;;;;67.35;46.30;;;;;;;8.87;100.00;101248.91;4904411;29;20106;-73
2023/04/29 00:12:33;;;;;;;68.20;48.53;;;;;;;8.87;100.00;101248.06;4908288;29;20461;-74
2023/04/29 00:14:59;;;;;;;69.63;47.72;;;;;;;8.84;100.00;101256.97;4917436;28;20122;-72
2023/04/29 00:17:25;;;;;;;71.18;45.88;;;;;;;8.81;100.00;101256.22;4956538;28;20030;-72
2023/04/29 00:19:50;;;;;;;73.00;45.95;;;;;;;8.80;100.00;101271.28;4892387;28;20036;-72
2023/04/29 00:22:16;;;;;;;67.93;42.55;;;;;;;8.65;100.00;101259.47;4923605;28;20076;-72
2023/04/29 00:24:41;;;;;;;64.47;41.40;;;;;;;8.56;100.00;101259.75;4911119;28;20251;-72
2023/04/29 00:27:07;;;;;;;60.70;41.78;;;;;;;8.56;100.00;101266.84;4903197;29;20093;-73
2023/04/29 00:29:32;;;;;;;62.17;39.67;;;;;;;8.53;100.00;101273.16;4904190;29;20400;-72
2023/04/29 00:31:58;;;;;;;63.47;40.78;;;;;;;8.47;100.00;101268.06;4982957;28;20217;-73
2023/04/29 00:34:23;;;;;;;55.75;37.85;;;;;;;8.41;100.00;101268.28;4903520;28;20024;-73
2023/04/29 00:36:49;;;;;;;60.85;38.47;;;;;;;8.40;100.00;101285.09;4896368;28;20576;-72
2023/04/29 00:39:15;;;;;;;57.92;40.15;;;;;;;8.40;100.00;101274.50;4901349;28;20147;-73
2023/04/29 00:41:41;;;;;;;57.67;39.90;;;;;;;8.39;100.00;101278.94;4931153;28;20044;-72
2023/04/29 00:44:06;;;;;;;60.10;40.53;;;;;;;8.39;100.00;101281.59;4904421;28;20381;-72
2023/04/29 00:46:32;;;;;;;58.17;40.15;;;;;;;8.37;100.00;101294.03;4903801;29;20059;-72
2023/04/29 00:48:59;;;;;;;57.88;39.17;;;;;;;8.37;100.00;101291.41;4904126;28;20028;-73
2023/04/29 00:51:25;;;;;;;56.95;39.50;;;;;;;8.40;100.00;101293.06;4904200;28;20028;-71
2023/04/29 00:53:50;;;;;;;56.63;38.88;;;;;;;8.43;100.00;101291.16;4905382;28;20074;-72
2023/04/29 00:56:16;;;;;;;55.45;38.10;;;;;;;8.47;100.00;101291.94;4915767;28;20451;-72
2023/04/29 00:58:48;;;;;;;51.80;37.38;;;;;;;8.51;100.00;101290.91;4907548;29;20071;-73
2023/04/29 01:01:18;;;;;;;47.75;36.33;;;;;;;8.48;100.00;101286.59;4924792;28;20036;-73
2023/04/29 01:03:44;;;;;;;50.28;36.90;;;;;;;8.40;100.00;101299.25;4906480;28;20024;-73
2023/04/29 01:06:19;;;;;;;42.25;33.60;;;;;;;8.44;100.00;101300.88;4897561;28;20431;-71
2023/04/29 01:09:25;;;;;;;41.03;32.20;;;;;;;8.47;100.00;101300.75;4906743;29;20028;-72
2023/04/29 01:12:06;;;;;;;41.00;32.90;;;;;;;8.46;100.00;101304.34;4980848;28;20038;-72
2023/04/29 01:14:33;;;;;;;41.42;32.72;;;;;;;8.46;100.00;101304.34;4980356;28;20146;-72
2023/04/29 01:17:04;;;;;;;38.78;31.75;;;;;;;8.44;100.00;101298.22;4979290;28;20399;-72
2023/04/29 01:19:50;;;;;;;39.97;30.98;;;;;;;8.47;100.00;101316.66;4982040;28;20431;-72
2023/04/29 01:22:20;;;;;;;38.95;32.40;;;;;;;8.43;100.00;101309.75;4982067;28;20089;-72
2023/04/29 01:24:47;;;;;;;39.72;31.05;;;;;;;8.45;100.00;101312.34;4978460;28;20026;-73
2023/04/29 01:27:29;;;;;;;38.75;30.58;;;;;;;8.51;100.00;101314.78;4966013;28;20251;-73
2023/04/29 01:30:26;;;;;;;34.83;29.15;;;;;;;8.44;100.00;101321.22;4982078;28;20140;-73
2023/04/29 01:33:27;;;;;;;37.92;30.25;;;;;;;8.47;100.00;101321.13;4981897;28;20034;-71
2023/04/29 01:36:09;;;;;;;38.75;29.67;;;;;;;8.42;100.00;101317.75;4979712;28;20113;-73
2023/04/29 01:38:43;;;;;;;33.50;28.58;;;;;;;8.36;100.00;101320.56;4981073;28;20607;-73
2023/04/29 01:41:42;;;;;;;38.85;29.95;;;;;;;8.39;100.00;101324.03;4964432;28;20038;-73
2023/04/29 01:44:12;;;;;;;39.47;32.08;;;;;;;8.32;100.00;101326.91;4982282;28;20042;-73
2023/04/29 01:46:39;;;;;;;41.88;31.98;;;;;;;8.29;100.00;101333.19;4916715;28;20496;-72
2023/04/29 01:49:06;;;;;;;41.65;33.22;;;;;;;8.31;100.00;101322.53;4905351;28;20032;-72
2023/04/29 01:51:32;;;;;;;39.75;32.10;;;;;;;8.30;100.00;101328.75;4905352;29;20028;-72
2023/04/29 01:53:58;;;;;;;42.00;33.45;;;;;;;8.27;100.00;101327.06;4906054;28;20056;-73
2023/04/29 01:56:23;;;;;;;42.97;33.15;;;;;;;8.18;100.00;101322.06;4917900;28;20530;-74
2023/04/29 01:58:49;;;;;;;44.95;34.58;;;;;;;8.23;100.00;101328.06;4952377;28;20392;-73
2023/04/29 02:01:15;;;;;;;42.97;33.78;;;;;;;8.20;100.00;101326.41;4906585;28;20251;-73
2023/04/29 02:03:40;;;;;;;44.28;34.38;;;;;;;8.20;100.00;101336.16;4915811;28;20083;-73
2023/04/29 02:06:06;;;;;;;43.92;34.63;;;;;;;8.26;100.00;101343.03;4904112;29;20481;-72
2023/04/29 02:08:31;;;;;;;49.55;35.88;;;;;;;8.26;100.00;101343.91;4905457;29;20392;-72
2023/04/29 02:10:58;;;;;;;44.67;34.80;;;;;;;8.24;100.00;101343.97;4905023;29;20493;-73
2023/04/29 02:13:24;;;;;;;48.33;35.50;;;;;;;8.25;100.00;101347.47;4905847;28;20028;-73
2023/04/29 02:15:49;;;;;;;46.58;35.83;;;;;;;8.28;100.00;101346.47;4933480;28;20547;-73
2023/04/29 02:18:15;;;;;;;48.30;36.60;;;;;;;8.26;100.00;101350.97;4925516;28;20066;-73
2023/04/29 02:20:41;;;;;;;49.05;37.00;;;;;;;8.27;100.00;101352.72;4924285;28;20066;-73
2023/04/29 02:23:06;;;;;;;47.70;35.97;;;;;;;8.27;100.00;101350.94;4904653;28;20094;-73
2023/04/29 02:25:31;;;;;;;45.30;35.63;;;;;;;8.28;100.00;101355.34;4904523;28;20042;-73
2023/04/29 02:27:57;;;;;;;47.33;35.35;;;;;;;8.31;100.00;101351.69;4904408;28;20035;-73
2023/04/29 02:30:22;;;;;;;48.17;36.75;;;;;;;8.28;100.00;101358.00;4905264;29;20040;-74
2023/04/29 02:32:47;;;;;;;47.47;36.17;;;;;;;8.31;100.00;101368.47;4915610;28;20028;-72
2023/04/29 02:35:13;;;;;;;46.75;36.70;;;;;;;8.26;100.00;101358.94;4905517;28;20376;-72
2023/04/29 02:37:38;;;;;;;49.65;37.70;;;;;;;8.26;100.00;101361.59;4918496;28;20170;-72
2023/04/29 02:40:04;;;;;;;50.40;37.40;;;;;;;8.27;100.00;101372.13;4906094;28;20307;-72
2023/04/29 02:42:30;;;;;;;53.47;37.80;;;;;;;8.28;100.00;101371.25;4915670;28;20576;-72
2023/04/29 02:44:55;;;;;;;53.90;39.55;;;;;;;8.27;100.00;101377.44;4904617;28;20032;-72
2023/04/29 02:47:21;;;;;;;54.08;38.60;;;;;;;8.24;100.00;101382.88;4908682;28;20043;-72
2023/04/29 02:49:46;;;;;;;56.00;40.58;;;;;;;8.24;100.00;101385.53;4905201;28;20032;-73
2023/04/29 02:52:12;;;;;;;59.58;41.53;;;;;;;8.22;100.00;101390.84;4910318;28;20277;-73
2023/04/29 02:54:37;;;;;;;51.45;38.35;;;;;;;8.22;100.00;101393.50;4904600;28;20079;-73
2023/04/29 02:57:03;;;;;;;56.47;39.90;;;;;;;8.19;100.00;101393.63;4912337;28;20496;-73
2023/04/29 02:59:28;;;;;;;57.95;40.35;;;;;;;8.18;100.00;101396.31;4905754;28;20559;-73
2023/04/29 03:01:54;;;;;;;62.88;42.05;;;;;;;8.16;100.00;101398.16;4914510;28;20041;-73
2023/04/29 03:04:19;;;;;;;60.58;42.03;;;;;;;8.11;100.00;101402.72;4916306;28;20063;-72
2023/04/29 03:06:45;;;;;;;63.70;42.97;;;;;;;8.03;100.00;101392.38;4902996;28;20020;-73
2023/04/29 03:09:12;;;;;;;60.75;42.80;;;;;;;8.05;100.00;101401.13;4904405;28;20468;-73
2023/04/29 03:11:37;;;;;;;62.03;42.33;;;;;;;8.02;100.00;101393.28;4922101;28;20032;-73
2023/04/29 03:14:03;;;;;;;61.00;43.17;;;;;;;7.99;100.00;101399.56;4909798;28;20101;-73
2023/04/29 03:16:29;;;;;;;66.10;43.25;;;;;;;8.01;100.00;101396.84;4924455;28;20028;-73
2023/04/29 03:18:54;;;;;;;61.58;43.55;;;;;;;7.99;100.00;101394.25;4939577;28;20032;-73
2023/04/29 03:21:20;;;;;;;63.83;43.78;;;;;;;7.92;100.00;101398.00;4916207;28;20044;-73
2023/04/29 03:23:46;;;;;;;65.90;44.95;;;;;;;7.94;100.00;101408.53;4906554;28;20047;-73
2023/04/29 03:26:11;;;;;;;67.10;45.42;;;;;;;7.91;100.00;101401.56;4905424;28;20028;-73
2023/04/29 03:28:36;;;;;;;65.10;43.83;;;;;;;7.90;100.00;101407.81;4959597;28;20112;-73
2023/04/29 03:31:02;;;;;;;65.32;45.05;;;;;;;7.87;100.00;101413.19;4904665;28;20032;-72
2023/04/29 03:33:27;;;;;;;62.00;41.42;;;;;;;7.88;100.00;101412.25;4903604;28;20488;-74
2023/04/29 03:35:53;;;;;;;65.60;44.10;;;;;;;7.82;100.00;101409.81;4902028;28;20523;-72
2023/04/29 03:38:18;;;;;;;69.85;44.90;;;;;;;7.83;100.00;101415.97;4906179;28;20036;-72
2023/04/29 03:40:44;;;;;;;63.72;42.17;;;;;;;7.80;100.00;101418.72;4919580;28;20512;-72
2023/04/29 03:43:10;;;;;;;69.47;45.20;;;;;;;7.79;100.00;101419.63;4904977;28;20036;-72
2023/04/29 03:45:36;;;;;;;63.78;44.15;;;;;;;7.79;100.00;101417.84;4903342;28;20031;-72
2023/04/29 03:48:02;;;;;;;65.68;43.95;;;;;;;7.84;100.00;101425.66;4929583;28;20123;-72
2023/04/29 03:50:28;;;;;;;69.78;45.15;;;;;;;7.84;100.00;101423.00;4927622;28;20034;-72
2023/04/29 03:52:53;;;;;;;63.03;43.55;;;;;;;7.86;100.00;101426.47;4913659;28;20024;-73
2023/04/29 03:55:18;;;;;;;63.55;41.38;;;;;;;7.83;100.00;101427.44;4946896;28;20050;-73
2023/04/29 03:57:44;;;;;;;61.13;41.63;;;;;;;7.84;100.00;101428.31;4963858;28;20040;-72
2023/04/29 04:00:10;;;;;;;62.38;42.17;;;;;;;7.84;100.00;101423.88;4920184;28;20056;-73
2023/04/29 04:02:35;;;;;;;60.47;41.65;;;;;;;7.81;100.00;101433.69;4907739;28;20128;-73
2023/04/29 04:05:00;;;;;;;60.20;39.97;;;;;;;7.71;100.00;101423.38;4909802;28;20032;-72
2023/04/29 04:07:26;;;;;;;61.78;39.63;;;;;;;7.80;100.00;101430.19;4902405;28;20029;-72
2023/04/29 04:09:51;;;;;;;59.65;39.80;;;;;;;7.79;100.00;101444.34;4912354;28;20020;-72
2023/04/29 04:12:16;;;;;;;55.90;38.42;;;;;;;7.82;100.00;101446.06;4937609;28;20032;-74
2023/04/29 04:14:42;;;;;;;55.47;38.00;;;;;;;7.83;100.00;101446.00;4909828;28;20035;-73
2023/04/29 04:17:07;;;;;;;57.55;39.35;;;;;;;7.83;100.00;101440.69;4914447;28;20032;-73
2023/04/29 04:19:32;;;;;;;56.00;38.58;;;;;;;7.84;100.00;101442.44;4915419;28;20034;-73
2023/04/29 04:21:58;;;;;;;55.83;37.72;;;;;;;7.86;100.00;101451.22;4904131;28;20064;-75
2023/04/29 04:24:23;;;;;;;56.10;37.30;;;;;;;7.82;100.00;101438.97;4929656;28;20024;-72
2023/04/29 04:26:49;;;;;;;57.17;38.05;;;;;;;7.85;100.00;101454.75;4902918;28;20154;-72
2023/04/29 04:29:17;;;;;;;52.95;37.25;;;;;;;7.81;100.00;101449.59;4925975;28;20039;-73
2023/04/29 04:31:42;;;;;;;56.50;39.38;;;;;;;7.85;100.00;101460.06;4907811;28;20032;-73
2023/04/29 04:34:08;;;;;;;56.70;38.70;;;;;;;7.78;100.00;101461.19;4907155;29;20032;-73
2023/04/29 04:36:33;;;;;;;55.70;38.28;;;;;;;7.81;100.00;101469.00;4906157;28;20409;-73
2023/04/29 04:38:58;;;;;;;54.97;39.25;;;;;;;7.79;100.00;101465.56;4945428;28;20029;-73
2023/04/29 04:41:24;;;;;;;59.08;38.40;;;;;;;7.81;100.00;101470.78;4939091;28;20039;-73
2023/04/29 04:43:50;;;;;;;58.33;39.80;;;;;;;7.80;100.00;101477.88;4906749;29;20402;-73
2023/04/29 04:46:16;;;;;;;54.10;38.70;;;;;;;7.80;100.00;101477.88;4906655;28;20464;-73
2023/04/29 04:48:41;;;;;;;60.58;38.13;;;;;;;7.81;100.00;101484.91;4963861;28;20367;-73
2023/04/29 04:51:11;;;;;;;54.65;38.15;;;;;;;7.82;100.00;101488.47;4935484;28;20505;-71
2023/04/29 04:53:37;;;;;;;58.70;38.65;;;;;;;7.83;100.00;101491.06;4944517;28;20055;-73
2023/04/29 04:56:03;;;;;;;54.50;39.13;;;;;;;7.74;100.00;101472.78;4905478;28;20048;-73
2023/04/29 04:58:30;;;;;;;56.20;38.95;;;;;;;7.87;100.00;101505.94;4906169;28;20028;-74
2023/04/29 05:00:55;;;;;;;56.40;36.65;;;;;;;7.91;100.00;101499.66;4905944;29;20028;-74
2023/04/29 05:03:21;;;;;;;53.55;38.00;;;;;;;7.90;100.00;101505.88;4891265;28;20545;-73
2023/04/29 05:06:01;;;;;;;54.35;38.38;;;;;;;7.92;100.00;101508.47;4906123;28;20044;-73
2023/04/29 05:08:26;;;;;;;55.35;38.10;;;;;;;7.95;100.00;101505.72;4933362;28;20032;-73
2023/04/29 05:10:52;;;;;;;54.10;36.92;;;;;;;7.95;100.00;101517.19;4917487;28;20521;-73
2023/04/29 05:13:18;;;;;;;51.08;36.28;;;;;;;7.97;100.00;101509.19;4906052;29;20607;-73
2023/04/29 05:15:44;;;;;;;52.75;36.63;;;;;;;7.96;100.00;101515.41;4906508;29;20023;-73
2023/04/29 05:18:10;;;;;;;53.80;39.03;;;;;;;7.95;100.00;101514.56;4970584;28;20090;-73
2023/04/29 05:20:35;;;;;;;56.00;39.47;;;;;;;7.99;100.00;101518.00;4903072;29;20333;-73
2023/04/29 05:23:01;;;;;;;51.33;37.90;;;;;;;7.95;100.00;101517.19;4904681;28;20043;-74
2023/04/29 05:25:27;;;;;;;56.40;38.45;;;;;;;7.99;100.00;101528.59;4924947;28;20039;-74
2023/04/29 05:27:52;;;;;;;56.95;37.95;;;;;;;8.03;100.00;101521.41;4967649;28;20388;-72
2023/04/29 05:30:18;;;;;;;51.90;38.17;;;;;;;8.02;100.00;101530.25;4906090;29;20373;-77
2023/04/29 05:32:47;;;;;;;55.70;39.13;;;;;;;8.03;100.00;101538.19;4920611;29;20153;-72
2023/04/29 05:35:13;;;;;;;52.55;37.17;;;;;;;7.95;100.00;101521.63;4904833;29;20035;-74
2023/04/29 05:37:38;;;;;;;55.03;36.80;;;;;;;8.00;100.00;101535.63;4905637;29;20452;-73
2023/04/29 05:40:04;;;;;;;50.83;36.00;;;;;;;8.04;100.00;101534.63;4907847;28;20390;-72
2023/04/29 05:42:30;;;;;;;51.70;37.42;;;;;;;8.02;100.00;101539.06;4904948;29;20078;-72
2023/04/29 05:44:55;;;;;;;48.25;35.85;;;;;;;8.03;100.00;101547.94;4909018;28;20024;-73
2023/04/29 05:47:21;;;;;;;46.08;34.53;;;;;;;8.07;100.00;101552.19;4905371;29;20098;-73
2023/04/29 05:49:47;;;;;;;48.95;34.88;;;;;;;8.06;100.00;101553.13;4919580;28;20028;-72
2023/04/29 05:52:12;;;;;;;49.08;34.20;;;;;;;8.06;100.00;101553.13;4905488;28;20043;-72
2023/04/29 05:54:37;;;;;;;47.60;34.83;;;;;;;8.05;100.00;101556.69;4903098;29;20469;-73
2023/04/29 05:57:04;;;;;;;47.88;35.67;;;;;;;8.06;100.00;101569.91;4955082;28;20045;-72
2023/04/29 05:59:30;;;;;;;45.15;34.90;;;;;;;8.08;100.00;101577.81;4911349;28;20028;-73
2023/04/29 06:01:56;;;;;;;49.97;34.47;;;;;;;8.08;100.00;101583.13;4917275;28;20028;-73
2023/04/29 06:04:22;;;;;;;46.13;33.90;;;;;;;8.13;100.00;101570.59;4905696;29;20032;-74
2023/04/29 06:06:47;;;;;;;41.72;33.25;;;;;;;8.17;100.00;101573.13;4920549;29;20036;-73
2023/04/29 06:09:17;;;;;;;42.60;33.45;;;;;;;8.20;100.00;101583.63;4906085;29;20509;-73
2023/04/29 06:11:43;;;;;;;48.35;34.42;;;;;;;8.20;100.00;101593.38;4910544;28;20359;-74
2023/04/29 06:14:09;;;;;;;46.20;33.63;;;;;;;8.17;100.00;101588.16;4923289;28;20032;-73
2023/04/29 06:16:34;;;;;;;44.50;33.67;;;;;;;8.18;100.00;101595.19;4920945;28;20474;-73
2023/04/29 06:19:00;;;;;;;45.97;34.65;;;;;;;8.15;100.00;101596.16;4909934;28;20155;-73
2023/04/29 06:21:26;;;;;;;45.20;33.65;;;;;;;8.20;100.00;101594.25;4917862;28;20036;-72
2023/04/29 06:23:52;;;;;;;41.88;33.17;;;;;;;8.20;100.00;101598.69;4918289;28;20122;-73
2023/04/29 06:26:17;;;;;;;41.20;32.55;;;;;;;8.21;100.00;101603.06;4905078;28;20028;-73
2023/04/29 06:28:43;;;;;;;46.30;34.05;;;;;;;8.16;100.00;101599.69;4923081;28;20030;-73
2023/04/29 06:31:08;;;;;;;44.05;34.13;;;;;;;8.22;100.00;101607.44;4912249;28;20031;-73
2023/04/29 06:33:34;;;;;;;43.67;34.97;;;;;;;8.22;100.00;101607.44;4910751;28;20028;-73
2023/04/29 06:35:59;;;;;;;46.03;35.30;;;;;;;8.22;100.00;101610.97;4905885;28;20107;-73
2023/04/29 06:38:24;;;;;;;44.83;33.40;;;;;;;8.23;100.00;101614.47;4905150;28;20028;-73
2023/04/29 06:40:50;;;;;;;43.60;33.50;;;;;;;8.20;100.00;101614.59;4904560;29;20087;-72
2023/04/29 06:43:15;;;;;;;45.92;33.72;;;;;;;8.24;100.00;101626.84;4905956;29;20459;-73
2023/04/29 06:45:41;;;;;;;45.08;33.15;;;;;;;8.25;100.00;101628.59;4939787;28;20033;-73
2023/04/29 06:48:06;;;;;;;45.33;33.40;;;;;;;8.16;100.00;101612.94;4957064;28;20384;-73
2023/04/29 06:50:32;;;;;;;44.92;33.10;;;;;;;8.21;100.00;101624.28;4935262;28;20043;-74
2023/04/29 06:52:58;;;;;;;39.92;32.95;;;;;;;8.21;100.00;101638.41;4905677;28;20380;-74
2023/04/29 06:55:23;;;;;;;45.13;33.60;;;;;;;8.21;100.00;101646.38;4903489;29;20067;-75
2023/04/29 06:57:48;;;;;;;43.55;32.83;;;;;;;8.23;100.00;101654.28;4901944;29;20025;-73
2023/04/29 07:00:14;;;;;;;42.67;33.97;;;;;;;8.26;100.00;101648.03;4904403;29;20036;-73
2023/04/29 07:02:40;;;;;;;41.90;33.25;;;;;;;8.28;100.00;101656.78;4931737;28;20118;-74
2023/04/29 07:05:06;;;;;;;43.05;33.75;;;;;;;8.36;100.00;101657.44;4904687;28;20044;-73
2023/04/29 07:07:31;;;;;;;47.03;34.08;;;;;;;8.43;100.00;101662.56;4904824;28;20028;-74
2023/04/29 07:09:56;;;;;;;39.00;31.73;;;;;;;8.50;100.00;101660.63;4903742;28;20107;-73
2023/04/29 07:12:22;;;;;;;38.38;31.52;;;;;;;8.60;100.00;101663.84;4904298;29;20028;-73
2023/04/29 07:14:47;;;;;;;39.10;31.98;;;;;;;8.70;100.00;101660.03;4901711;28;20040;-74
2023/04/29 07:17:12;;;;;;;38.72;30.77;;;;;;;8.87;100.00;101660.38;4908205;28;20051;-74
2023/04/29 07:19:38;;;;;;;33.95;27.73;;;;;;;9.05;100.00;101666.91;4903639;28;20068;-73
2023/04/29 07:22:03;;;;;;;34.58;29.33;;;;;;;9.16;100.00;101669.22;4916548;28;20053;-74
2023/04/29 07:24:28;;;;;;;37.05;28.27;;;;;;;9.32;100.00;101667.81;4919504;28;20120;-74
2023/04/29 07:26:54;;;;;;;36.58;28.52;;;;;;;9.44;100.00;101670.03;4905658;28;20106;-74
2023/04/29 07:29:19;;;;;;;33.67;26.73;;;;;;;9.53;100.00;101662.69;4909638;28;20130;-74
2023/04/29 07:31:45;;;;;;;36.50;27.92;;;;;;;9.77;100.00;101675.16;4896957;28;20103;-73
2023/04/29 07:34:10;;;;;;;30.17;26.08;;;;;;;9.85;100.00;101683.75;4903253;29;20397;-73
2023/04/29 07:36:35;;;;;;;32.55;26.30;;;;;;;9.96;100.00;101686.91;4914226;28;20102;-75
2023/04/29 07:39:01;;;;;;;35.03;27.52;;;;;;;10.11;100.00;101676.63;4902831;29;20032;-74
2023/04/29 07:41:27;;;;;;;30.58;25.70;;;;;;;10.18;100.00;101694.13;4899947;28;20121;-73
2023/04/29 07:43:52;;;;;;;28.38;25.25;;;;;;;10.28;100.00;101687.56;4905339;28;20119;-74
2023/04/29 07:46:18;;;;;;;27.55;24.08;;;;;;;10.27;100.00;101688.50;4901494;28;20112;-74
2023/04/29 07:48:44;;;;;;;27.77;23.88;;;;;;;10.23;100.00;101694.81;4896664;28;20020;-76
2023/04/29 07:51:13;;;;;;;30.05;24.05;;;;;;;10.28;100.00;101705.34;4903799;29;20028;-75
2023/04/29 07:53:39;;;;;;;28.58;24.27;;;;;;;10.28;100.00;101695.56;4910503;28;20028;-75
2023/04/29 07:56:08;;;;;;;30.15;25.45;;;;;;;10.23;100.00;101695.69;4904945;28;20064;-74
2023/04/29 07:58:33;;;;;;;27.48;23.30;;;;;;;10.28;100.00;101698.22;4903941;29;20032;-76
2023/04/29 08:01:10;;;;;;;29.42;24.23;;;;;;;10.37;100.00;101711.22;4904893;28;20372;-76
2023/04/29 08:03:36;;;;;;;25.70;21.92;;;;;;;10.21;100.00;101702.00;4917346;28;20032;-72
2023/04/29 08:06:03;;;;;;;26.75;23.25;;;;;;;10.12;100.00;101713.84;4910648;28;20151;-74
2023/04/29 08:08:30;;;;;;;27.13;23.33;;;;;;;10.00;100.00;101716.94;4914089;28;20029;-74
2023/04/29 08:10:55;;;;;;;29.15;24.45;;;;;;;10.02;100.00;101723.06;4897489;28;20050;-74
2023/04/29 08:13:21;;;;;;;33.25;26.00;;;;;;;9.95;100.00;101724.22;4902753;29;20111;-74
2023/04/29 08:15:47;;;;;;;29.65;24.20;;;;;;;9.93;100.00;101724.25;4905645;28;20028;-73
2023/04/29 08:18:12;;;;;;;29.25;24.85;;;;;;;10.00;100.00;101719.59;4949777;28;20038;-74
2023/04/29 08:20:37;;;;;;;28.35;23.27;;;;;;;9.98;100.00;101716.97;4925703;28;20094;-73
2023/04/29 08:23:03;;;;;;;27.40;23.98;;;;;;;10.19;100.00;101715.34;4904657;28;20354;-74
2023/04/29 08:25:29;;;;;;;32.90;25.45;;;;;;;10.33;100.00;101722.03;4901081;28;20032;-76
2023/04/29 08:27:54;;;;;;;29.27;24.80;;;;;;;10.54;100.00;101720.38;4914080;28;20028;-74
2023/04/29 08:30:20;;;;;;;26.85;23.92;;;;;;;10.69;100.00;101719.78;4907184;28;20036;-75
2023/04/29 08:32:46;;;;;;;28.23;24.17;;;;;;;10.89;100.00;101722.56;4904881;28;20576;-75
2023/04/29 08:35:11;;;;;;;28.33;23.67;;;;;;;11.02;100.00;101722.09;4911295;28;20351;-74
2023/04/29 08:37:37;;;;;;;24.92;22.10;;;;;;;11.02;100.00;101732.75;4928436;28;20054;-73
2023/04/29 08:40:03;;;;;;;24.45;21.92;;;;;;;11.00;100.00;101730.16;4910467;28;20051;-73
2023/04/29 08:42:33;;;;;;;24.55;21.27;;;;;;;11.01;100.00;101726.56;4907336;28;20467;-75
2023/04/29 08:45:00;;;;;;;24.90;22.17;;;;;;;11.30;100.00;101727.22;4943275;28;20069;-75
2023/04/29 08:47:29;;;;;;;25.90;21.83;;;;;;;11.81;100.00;101734.03;4920128;28;20507;-74
2023/04/29 08:49:55;;;;;;;26.13;21.13;;;;;;;12.43;98.56;101733.16;4917516;28;20236;-75
2023/04/29 08:52:20;;;;;;;23.45;21.02;;;;;;;13.09;95.31;101725.66;4927693;28;20058;-76
2023/04/29 08:54:46;;;;;;;22.00;19.70;;;;;;;13.44;91.00;101732.00;4902797;28;20163;-75
2023/04/29 08:57:12;;;;;;;23.23;19.60;;;;;;;13.37;88.98;101729.69;4894790;28;20032;-76
2023/04/29 08:59:37;;;;;;;20.98;18.67;;;;;;;13.04;87.98;101741.06;4903504;28;20036;-75
2023/04/29 09:02:09;;;;;;;20.42;17.75;;;;;;;12.86;88.79;101740.06;4907325;28;20031;-74
2023/04/29 09:04:52;;;;;;;19.42;17.42;;;;;;;12.84;89.72;101738.44;4900405;28;20025;-76
2023/04/29 09:07:18;;;;;;;19.40;17.00;;;;;;;12.88;86.68;101748.03;4915423;28;20517;-75
2023/04/29 09:09:43;;;;;;;19.90;17.30;;;;;;;12.81;86.90;101750.13;4903628;28;20056;-75
2023/04/29 09:12:09;;;;;;;21.00;16.83;;;;;;;12.89;88.22;101752.44;4913660;28;20180;-75
2023/04/29 09:14:35;;;;;;;19.77;17.73;;;;;;;12.69;86.95;101758.69;4903585;28;20028;-74
2023/04/29 09:17:01;;;;;;;19.30;17.17;;;;;;;12.54;87.90;101751.34;4911824;28;20559;-75
2023/04/29 09:19:28;;;;;;;20.05;16.08;;;;;;;12.85;85.04;101751.72;4917014;28;20496;-74
2023/04/29 09:21:57;;;;;;;24.35;21.95;;;;;;;13.38;83.05;101750.19;4922438;28;20029;-73
2023/04/29 09:24:27;;;;;;;18.83;16.00;;;;;;;13.48;82.61;101750.59;4910891;28;20318;-75
2023/04/29 09:26:53;;;;;;;19.98;16.67;;;;;;;13.65;82.54;101756.84;4906229;28;20023;-74
2023/04/29 09:29:18;;;;;;;18.60;15.85;;;;;;;13.36;79.78;101741.34;4934665;28;20134;-75
2023/04/29 09:31:44;;;;;;;20.70;16.63;;;;;;;13.51;80.69;101745.97;4910909;28;20054;-76
2023/04/29 09:34:10;;;;;;;17.70;15.73;;;;;;;13.68;78.40;101759.38;4905759;28;20094;-77
2023/04/29 09:36:36;;;;;;;22.98;19.88;;;;;;;13.90;79.06;101758.31;4910975;28;20107;-76
2023/04/29 09:39:04;;;;;;;17.17;15.38;;;;;;;14.64;76.81;101752.72;4906916;28;20032;-76
2023/04/29 09:41:30;;;;;;;18.50;14.90;;;;;;;15.43;75.17;101756.38;4968865;28;20122;-75
2023/04/29 09:44:06;;;;;;;25.55;23.27;;;;;;;17.32;67.80;101753.91;4919015;28;20120;-76
2023/04/29 09:46:32;;;;;;;14.77;13.00;;;;;;;18.51;61.14;101754.91;4907037;28;20036;-76
2023/04/29 09:48:58;;;;;;;13.60;11.85;;;;;;;18.52;56.35;101737.78;4918171;28;20026;-76
2023/04/29 09:51:23;;;;;;;12.60;11.25;;;;;;;17.60;57.78;101765.56;4923837;28;20044;-75
2023/04/29 09:53:49;;;;;;;14.90;11.82;;;;;;;16.84;61.75;101766.81;4902185;28;20489;-74
2023/04/29 09:56:15;;;;;;;14.20;12.60;;;;;;;18.20;62.16;101765.13;4924102;28;20113;-76
2023/04/29 09:58:41;;;;;;;15.02;11.65;;;;;;;19.58;54.42;101768.81;4905834;28;20090;-76
2023/04/29 10:01:07;;;;;;;14.25;12.35;;;;;;;19.14;54.51;101771.13;4903461;28;20036;-76
2023/04/29 10:03:37;;;;;;;17.77;15.98;;;;;;;18.42;57.94;101775.28;4903246;28;20531;-74
2023/04/29 10:06:04;;;;;;;13.93;12.52;;;;;;;17.57;59.40;101779.22;4918850;28;20309;-78
2023/04/29 10:08:31;;;;;;;13.20;11.80;;;;;;;16.90;61.38;101787.94;4898908;28;20409;-76
2023/04/29 10:11:03;;;;;;;17.42;15.63;;;;;;;15.80;64.13;101781.13;4906786;28;20106;-76
2023/04/29 10:13:29;;;;;;;12.60;11.27;;;;;;;14.74;65.67;101788.78;4913911;28;20032;-76
2023/04/29 10:16:26;;;;;;;12.57;11.23;;;;;;;14.34;70.84;101798.88;4912800;28;20078;-78
2023/04/29 10:18:54;;;;;;;13.15;11.75;;;;;;;13.80;71.27;101794.50;4904157;28;20036;-79
2023/04/29 10:21:26;;;;;;;16.63;14.98;;;;;;;13.69;73.60;101801.22;4926563;28;20115;-79
2023/04/29 10:23:54;;;;;;;13.73;11.77;;;;;;;13.33;73.04;101806.50;4902331;28;20075;-77
2023/04/29 10:26:21;;;;;;;32.40;29.38;;;;;;;13.66;74.70;101798.69;4905169;28;20036;-77
2023/04/29 10:28:48;;;;;;;16.58;14.88;;;;;;;14.01;72.04;101793.44;4921192;28;20080;-76
2023/04/29 10:31:16;;;;;;;14.38;12.82;;;;;;;14.50;70.65;101796.28;4893463;28;20127;-77
2023/04/29 10:33:47;;;;;;;14.30;12.52;;;;;;;15.16;70.38;101799.00;4929377;28;20030;-76
2023/04/29 10:36:14;;;;;;;15.05;13.32;;;;;;;15.69;66.69;101794.31;4937776;28;20072;-77
2023/04/29 10:38:46;;;;;;;13.15;11.82;;;;;;;16.76;62.53;101796.03;4925797;28;20081;-76
2023/04/29 10:41:22;;;;;;;14.75;11.82;;;;;;;17.31;59.84;101797.06;4918528;28;20039;-77
2023/04/29 10:43:47;;;;;;;14.60;12.98;;;;;;;17.20;58.25;101797.75;4897026;29;20039;-74
2023/04/29 10:46:17;;;;;;;13.40;12.00;;;;;;;16.64;62.22;101799.44;4905205;29;20028;-74
2023/04/29 10:48:43;;;;;;;14.95;12.43;;;;;;;16.08;63.98;101795.63;4913455;28;20029;-76
2023/04/29 10:51:08;;;;;;;15.98;13.10;;;;;;;15.34;65.97;101797.13;4945684;28;20182;-76
2023/04/29 10:53:34;;;;;;;19.02;16.80;;;;;;;14.70;66.64;101806.81;4927307;28;20044;-75
2023/04/29 10:56:06;;;;;;;16.95;13.23;;;;;;;14.32;70.81;101805.25;4906651;28;20044;-74
2023/04/29 10:58:45;;;;;;;21.95;19.90;;;;;;;14.00;71.40;101818.44;4927059;28;20134;-76
2023/04/29 11:01:15;;;;;;;13.45;12.05;;;;;;;13.69;72.55;101808.38;4910601;28;20031;-74
2023/04/29 11:04:03;;;;;;;15.70;13.25;;;;;;;13.67;72.17;101799.59;4904783;28;20040;-74
2023/04/29 11:06:34;;;;;;;15.02;12.90;;;;;;;13.97;72.03;101804.38;4919153;28;20028;-73
2023/04/29 11:09:08;;;;;;;17.02;15.20;;;;;;;14.52;69.34;101806.94;4929812;28;20038;-75